createdAt,value
2022-09-20T00:03:43.297Z,7.50
2022-09-20T00:07:45.625Z,6.82
2022-09-20T00:11:47.398Z,7.30
2022-09-20T00:15:49.016Z,10.82
2022-09-20T00:19:50.547Z,7.57
2022-09-20T00:23:52.746Z,11.52
2022-09-20T00:27:54.308Z,8.10
2022-09-20T00:31:56.030Z,7.28
2022-09-20T00:35:58.905Z,9.02
2022-09-20T00:40:00.988Z,9.55
2022-09-20T00:44:04.000Z,6.75
2022-09-20T00:48:24.401Z,10.90
2022-09-20T00:52:27.636Z,10.18
2022-09-20T00:56:36.311Z,8.25
2022-09-20T01:00:39.091Z,8.27
2022-09-20T01:04:43.096Z,11.55
2022-09-20T01:08:50.681Z,13.15
2022-09-20T01:12:53.927Z,7.07
2022-09-20T01:16:57.679Z,6.88
2022-09-20T01:21:01.207Z,9.82
2022-09-20T01:25:14.786Z,7.65
2022-09-20T01:29:41.504Z,11.13
2022-09-20T01:33:50.145Z,7.57
2022-09-20T01:38:33.867Z,14.52
2022-09-20T01:46:43.116Z,9.35
2022-09-20T01:51:28.210Z,13.68
2022-09-20T01:55:58.396Z,11.75
2022-09-20T02:00:24.045Z,6.68
2022-09-20T02:04:44.446Z,14.32
2022-09-20T02:09:11.913Z,8.45
2022-09-20T02:13:33.344Z,8.85
2022-09-20T02:17:54.040Z,10.93
2022-09-20T02:22:25.725Z,12.75
2022-09-20T02:26:51.792Z,12.95
2022-09-20T02:31:19.236Z,12.75
2022-09-20T02:35:36.044Z,12.45
2022-09-20T02:39:48.908Z,13.60
2022-09-20T02:44:09.201Z,15.90
2022-09-20T02:48:10.968Z,16.00
2022-09-20T02:52:26.218Z,14.70
2022-09-20T02:56:55.643Z,12.75
2022-09-20T03:01:17.207Z,13.82
2022-09-20T03:05:27.391Z,15.90
2022-09-20T03:09:44.238Z,11.35
2022-09-20T03:14:01.827Z,14.93
2022-09-20T03:18:25.053Z,15.75
2022-09-20T03:27:05.365Z,12.70
2022-09-20T03:31:47.644Z,12.10
2022-09-20T03:36:23.099Z,11.05
2022-09-20T03:40:50.687Z,9.02
2022-09-20T03:45:07.496Z,13.18
2022-09-20T03:49:48.071Z,16.92
2022-09-20T03:54:17.208Z,11.30
2022-09-20T03:58:34.830Z,18.40
2022-09-20T04:02:42.037Z,14.55
2022-09-20T04:07:05.388Z,10.20
2022-09-20T04:15:23.802Z,25.17
2022-09-20T04:19:41.471Z,20.88
2022-09-20T04:23:52.289Z,12.90
2022-09-20T04:28:02.974Z,14.43
2022-09-20T04:32:43.781Z,18.45
2022-09-20T04:37:06.232Z,17.05
2022-09-20T04:41:28.282Z,15.70
2022-09-20T04:46:00.301Z,16.10
2022-09-20T04:50:23.888Z,14.90
2022-09-20T04:54:46.184Z,11.80
2022-09-20T04:58:49.032Z,13.93
2022-09-20T05:03:11.220Z,18.73
2022-09-20T05:07:22.259Z,16.83
2022-09-20T05:11:47.018Z,18.23
2022-09-20T05:15:55.209Z,17.05
2022-09-20T05:20:19.046Z,21.20
2022-09-20T05:24:40.991Z,19.63
2022-09-20T05:29:16.763Z,20.42
2022-09-20T05:33:37.505Z,17.08
2022-09-20T05:37:42.086Z,18.70
2022-09-20T05:41:54.670Z,19.08
2022-09-20T05:46:47.922Z,15.82
2022-09-20T05:51:03.533Z,13.70
2022-09-20T05:55:11.150Z,10.70
2022-09-20T05:59:27.619Z,18.48
2022-09-20T06:03:39.509Z,17.48
2022-09-20T06:07:45.782Z,15.95
2022-09-20T06:12:14.756Z,20.10
2022-09-20T06:16:32.566Z,15.85
2022-09-20T06:21:13.168Z,17.85
2022-09-20T06:25:20.209Z,14.68
2022-09-20T06:29:33.616Z,15.07
2022-09-20T06:33:50.104Z,13.65
2022-09-20T06:38:22.690Z,12.02
2022-09-20T06:42:27.153Z,9.07
2022-09-20T06:46:31.627Z,9.52
2022-09-20T06:50:36.319Z,13.98
2022-09-20T06:54:38.418Z,13.40
2022-09-20T06:58:40.116Z,10.30
2022-09-20T07:02:44.542Z,12.43
2022-09-20T07:06:46.150Z,10.45
2022-09-20T07:10:48.252Z,10.32
2022-09-20T07:14:50.654Z,10.20
2022-09-20T07:18:52.697Z,11.00
2022-09-20T07:22:54.267Z,12.98
2022-09-20T07:27:01.695Z,12.05
2022-09-20T07:31:03.242Z,14.30
2022-09-20T07:35:05.449Z,8.65
2022-09-20T07:39:08.374Z,13.43
2022-09-20T07:43:09.999Z,10.43
2022-09-20T07:47:14.111Z,15.00
2022-09-20T07:51:15.691Z,8.52
2022-09-20T07:55:17.707Z,17.02
2022-09-20T07:59:19.444Z,18.20
2022-09-20T08:03:21.688Z,11.18
2022-09-20T08:07:23.759Z,14.50
2022-09-20T08:11:28.685Z,17.58
2022-09-20T08:15:31.874Z,16.48
2022-09-20T08:19:33.468Z,18.15
2022-09-20T08:23:39.370Z,12.25
2022-09-20T08:27:40.934Z,13.30
2022-09-20T08:31:42.949Z,10.07
2022-09-20T08:35:49.135Z,14.35
2022-09-20T08:39:58.841Z,13.90
2022-09-20T08:44:11.726Z,14.43
2022-09-20T08:48:16.877Z,12.88
2022-09-20T08:52:25.418Z,9.95
2022-09-20T08:56:32.645Z,15.38
2022-09-20T09:00:36.869Z,16.85
2022-09-20T09:04:38.416Z,10.40
2022-09-20T09:08:40.417Z,10.85
2022-09-20T09:12:48.788Z,12.33
2022-09-20T09:16:50.613Z,14.93
2022-09-20T09:20:52.223Z,13.18
2022-09-20T09:25:17.272Z,12.15
2022-09-20T09:29:21.377Z,13.77
2022-09-20T09:33:31.043Z,17.55
2022-09-20T09:37:32.653Z,12.40
2022-09-20T09:41:35.995Z,6.97
2022-09-20T09:50:00.358Z,8.85
2022-09-20T09:54:04.961Z,9.50
2022-09-20T09:58:22.806Z,9.63
2022-09-20T10:02:43.245Z,10.27
2022-09-20T10:06:57.418Z,10.40
2022-09-20T10:11:38.006Z,9.85
2022-09-20T10:15:56.538Z,9.15
2022-09-20T10:20:07.721Z,8.45
2022-09-20T10:24:32.144Z,9.10
2022-09-20T10:28:48.524Z,8.15
2022-09-20T10:33:14.473Z,5.63
2022-09-20T10:37:40.846Z,5.78
2022-09-20T10:42:38.963Z,10.38
2022-09-20T10:46:52.941Z,8.13
2022-09-20T10:51:00.312Z,9.80
2022-09-20T10:55:05.114Z,9.15
2022-09-20T10:59:42.305Z,4.45
2022-09-20T11:04:16.145Z,4.07
2022-09-20T11:08:26.358Z,6.53
2022-09-20T11:12:39.759Z,5.07
2022-09-20T11:16:52.937Z,5.03
2022-09-20T11:21:28.444Z,6.93
2022-09-20T11:25:44.530Z,4.72
2022-09-20T11:29:53.527Z,5.22
2022-09-20T11:34:14.350Z,6.47
2022-09-20T11:38:26.195Z,6.65
2022-09-20T11:42:36.523Z,4.60
2022-09-20T11:47:12.751Z,7.35
2022-09-20T11:51:43.628Z,7.57
2022-09-20T11:55:59.056Z,8.85
2022-09-20T12:00:04.241Z,5.05
2022-09-20T12:08:42.193Z,7.63
2022-09-20T12:12:47.168Z,6.60
2022-09-20T12:16:50.161Z,6.80
2022-09-20T12:21:16.495Z,7.93
2022-09-20T12:25:39.580Z,4.10
2022-09-20T12:30:03.416Z,4.65
2022-09-20T12:34:25.502Z,5.75
2022-09-20T12:38:31.249Z,5.38
2022-09-20T12:42:33.977Z,5.63
2022-09-20T12:51:02.026Z,6.28
2022-09-20T12:55:10.226Z,5.35
2022-09-20T12:59:31.043Z,5.70
2022-09-20T13:03:39.180Z,4.38
2022-09-20T13:07:46.997Z,7.85
2022-09-20T13:11:56.987Z,4.90
2022-09-20T13:16:01.308Z,6.00
2022-09-20T13:20:04.079Z,4.68
2022-09-20T13:24:08.000Z,6.28
2022-09-20T13:28:29.821Z,5.88
2022-09-20T13:32:32.321Z,4.80
2022-09-20T13:36:36.161Z,3.35
2022-09-20T13:40:42.508Z,5.75
2022-09-20T13:44:44.302Z,3.90
2022-09-20T13:48:53.554Z,7.28
2022-09-20T13:52:58.130Z,6.00
2022-09-20T13:57:10.862Z,6.63
2022-09-20T14:01:31.086Z,6.25
2022-09-20T14:05:33.534Z,5.82
2022-09-20T14:09:39.462Z,5.13
2022-09-20T14:13:43.941Z,4.95
2022-09-20T14:17:46.371Z,7.30
2022-09-20T14:21:48.835Z,6.15
2022-09-20T14:26:29.332Z,6.65
2022-09-20T14:30:37.462Z,4.30
2022-09-20T14:34:41.419Z,4.55
2022-09-20T14:38:45.181Z,7.55
2022-09-20T14:42:50.646Z,5.97
2022-09-20T14:46:52.194Z,5.35
2022-09-20T14:51:12.730Z,6.68
2022-09-20T14:55:14.360Z,5.35
2022-09-20T14:59:21.283Z,8.70
2022-09-20T15:03:26.674Z,7.00
2022-09-20T15:07:28.840Z,4.85
2022-09-20T15:11:30.559Z,5.57
2022-09-20T15:15:32.354Z,8.65
2022-09-20T15:19:34.583Z,3.78
2022-09-20T15:23:37.035Z,5.30
2022-09-20T15:27:38.551Z,6.50
2022-09-20T15:31:42.394Z,5.38
2022-09-20T15:35:45.430Z,13.48
2022-09-20T15:43:49.998Z,5.15
2022-09-20T15:47:55.476Z,3.60
2022-09-20T15:51:57.284Z,5.07
2022-09-20T15:56:02.805Z,4.57
2022-09-20T16:00:05.312Z,2.67
2022-09-20T16:04:15.089Z,2.83
2022-09-20T16:08:17.278Z,3.15
2022-09-20T16:12:20.516Z,3.57
2022-09-20T16:16:22.719Z,1.42
2022-09-20T16:20:24.484Z,2.73
2022-09-20T16:24:29.521Z,2.08
2022-09-20T16:28:31.312Z,2.28
2022-09-20T16:32:32.859Z,4.50
2022-09-20T16:36:34.602Z,1.88
2022-09-20T16:40:36.791Z,2.58
2022-09-20T16:44:40.613Z,3.03
2022-09-20T16:48:42.616Z,4.75
2022-09-20T16:52:44.922Z,2.70
2022-09-20T16:56:48.318Z,1.73
2022-09-20T17:00:50.056Z,5.82
2022-09-20T17:04:52.017Z,2.95
2022-09-20T17:08:58.889Z,4.95
2022-09-20T17:13:00.838Z,3.20
2022-09-20T17:17:02.632Z,3.83
2022-09-20T17:21:09.204Z,3.33
2022-09-20T17:25:10.988Z,7.07
2022-09-20T17:29:17.536Z,4.28
2022-09-20T17:33:19.179Z,3.22
2022-09-20T17:37:21.233Z,2.75
2022-09-20T17:41:23.556Z,5.85
2022-09-20T17:45:25.180Z,4.60
2022-09-20T17:49:27.779Z,5.60
2022-09-20T17:53:34.092Z,2.88
2022-09-20T17:57:37.274Z,6.82
2022-09-20T18:01:40.304Z,4.32
2022-09-20T18:05:42.125Z,7.38
2022-09-20T18:09:43.718Z,8.90
2022-09-20T18:13:45.371Z,3.58
2022-09-20T18:17:49.273Z,3.72
2022-09-20T18:21:54.143Z,3.95
2022-09-20T18:26:14.766Z,5.68
2022-09-20T18:30:17.878Z,2.85
2022-09-20T18:34:24.748Z,4.97
2022-09-20T18:38:26.271Z,6.90
2022-09-20T18:42:29.171Z,4.55
2022-09-20T18:46:46.525Z,4.32
2022-09-20T19:06:21.369Z,5.28
2022-09-20T19:11:06.247Z,5.30
2022-09-20T19:15:36.620Z,4.78
2022-09-20T19:19:45.444Z,6.78
2022-09-20T19:24:05.985Z,8.70
2022-09-20T19:28:11.468Z,3.88
2022-09-20T19:32:21.829Z,5.03
2022-09-20T19:36:25.841Z,13.20
2022-09-20T19:40:46.226Z,5.68
2022-09-20T19:45:16.259Z,6.30
2022-09-20T19:49:32.031Z,4.75
2022-09-20T19:53:34.146Z,6.97
2022-09-20T19:57:42.845Z,4.47
2022-09-20T20:01:45.041Z,5.47
2022-09-20T20:05:57.383Z,4.83
2022-09-20T20:10:06.129Z,6.35
2022-09-20T20:14:34.072Z,7.28
2022-09-20T20:19:13.325Z,8.13
2022-09-20T20:23:43.414Z,2.75
2022-09-20T20:27:45.255Z,6.10
2022-09-20T20:31:46.960Z,4.63
2022-09-20T20:35:58.954Z,8.63
2022-09-20T20:40:01.101Z,6.53
2022-09-20T20:44:06.315Z,3.58
2022-09-20T20:48:07.918Z,8.00
2022-09-20T20:52:09.700Z,8.27
2022-09-20T20:56:14.617Z,5.70
2022-09-20T21:00:16.351Z,5.88
2022-09-20T21:04:18.319Z,7.68
2022-09-20T21:08:19.860Z,7.25
2022-09-20T21:12:21.434Z,10.38
2022-09-20T21:16:28.776Z,4.88
2022-09-20T21:20:31.084Z,6.28
2022-09-20T21:24:32.801Z,6.43
2022-09-20T21:28:36.852Z,5.30
2022-09-20T21:32:38.455Z,6.10
2022-09-20T21:36:44.684Z,6.60
2022-09-20T21:40:46.719Z,8.35
2022-09-20T21:44:48.271Z,9.35
2022-09-20T21:48:50.826Z,5.80
2022-09-20T21:52:53.476Z,8.43
2022-09-20T21:56:59.398Z,9.57
2022-09-20T22:01:11.384Z,8.82
2022-09-20T22:05:13.328Z,7.25
2022-09-20T22:09:17.204Z,7.18
2022-09-20T22:13:19.213Z,6.75
2022-09-20T22:17:20.825Z,8.68
2022-09-20T22:21:24.882Z,7.75
2022-09-20T22:25:26.544Z,10.23
2022-09-20T22:29:28.106Z,12.75
2022-09-20T22:33:31.144Z,13.80
2022-09-20T22:41:35.296Z,9.07
2022-09-20T22:45:36.812Z,16.35
2022-09-20T22:49:38.369Z,8.20
2022-09-20T22:53:41.399Z,8.13
2022-09-20T23:01:48.243Z,7.60
2022-09-20T23:05:49.791Z,7.32
2022-09-20T23:09:51.472Z,7.13
2022-09-20T23:13:55.376Z,7.40
2022-09-20T23:17:56.933Z,7.07
2022-09-20T23:21:58.584Z,13.07
2022-09-20T23:26:07.417Z,9.10
2022-09-20T23:30:09.268Z,5.28
2022-09-20T23:34:11.327Z,12.70
2022-09-20T23:38:14.663Z,6.03
2022-09-20T23:42:16.200Z,9.77
2022-09-20T23:46:19.662Z,6.65
2022-09-20T23:50:21.218Z,7.78
2022-09-20T23:54:22.863Z,8.40
2022-09-20T23:58:24.524Z,8.30
